createdAt,value
2023-03-28T00:00:43.061Z,100.00
2023-03-28T00:03:18.156Z,100.00
2023-03-28T00:05:51.014Z,100.00
2023-03-28T00:08:23.451Z,98.57
2023-03-28T00:11:02.634Z,97.49
2023-03-28T00:13:35.917Z,99.83
2023-03-28T00:16:12.244Z,100.00
2023-03-28T00:18:44.787Z,99.41
2023-03-28T00:21:23.116Z,100.00
2023-03-28T00:24:01.139Z,99.21
2023-03-28T00:26:35.382Z,100.00
2023-03-28T00:29:11.894Z,100.00
2023-03-28T00:31:44.862Z,100.00
2023-03-28T00:34:17.542Z,100.00
2023-03-28T00:36:50.013Z,100.00
2023-03-28T00:39:22.583Z,100.00
2023-03-28T00:41:56.769Z,100.00
2023-03-28T00:44:47.816Z,100.00
2023-03-28T00:47:41.193Z,100.00
2023-03-28T00:50:19.328Z,99.62
2023-03-28T00:52:56.301Z,100.00
2023-03-28T00:55:35.058Z,100.00
2023-03-28T00:58:11.255Z,100.00
2023-03-28T01:00:46.143Z,100.00
2023-03-28T01:03:22.520Z,95.26
2023-03-28T01:05:57.789Z,95.71
2023-03-28T01:08:41.496Z,100.00
2023-03-28T01:11:15.028Z,99.15
2023-03-28T01:13:51.566Z,99.84
2023-03-28T01:16:26.594Z,99.77
2023-03-28T01:19:01.884Z,100.00
2023-03-28T01:22:00.366Z,99.04
2023-03-28T01:25:02.309Z,98.33
2023-03-28T01:27:43.727Z,95.18
2023-03-28T01:30:52.770Z,98.22
2023-03-28T01:34:19.612Z,99.20
2023-03-28T01:37:09.510Z,96.21
2023-03-28T01:40:05.736Z,96.06
2023-03-28T01:42:51.904Z,98.80
2023-03-28T01:45:30.545Z,94.68
2023-03-28T01:48:08.704Z,93.74
2023-03-28T01:50:45.306Z,92.55
2023-03-28T01:53:27.271Z,93.46
2023-03-28T01:56:04.197Z,95.01
2023-03-28T01:58:43.688Z,95.68
2023-03-28T02:01:36.443Z,94.17
2023-03-28T02:04:19.705Z,96.55
2023-03-28T02:07:04.156Z,93.09
2023-03-28T02:09:44.644Z,93.41
2023-03-28T02:12:44.976Z,94.75
2023-03-28T02:15:32.480Z,96.97
2023-03-28T02:18:29.002Z,95.42
2023-03-28T02:21:08.554Z,96.68
2023-03-28T02:24:03.967Z,96.76
2023-03-28T02:26:37.443Z,96.59
2023-03-28T02:29:22.695Z,96.12
2023-03-28T02:32:01.026Z,96.10
2023-03-28T02:34:33.578Z,93.68
2023-03-28T02:37:16.276Z,97.65
2023-03-28T02:39:59.140Z,95.19
2023-03-28T02:43:01.790Z,99.53
2023-03-28T02:46:02.649Z,98.78
2023-03-28T02:49:08.549Z,100.00
2023-03-28T02:51:47.913Z,99.64
2023-03-28T02:54:27.614Z,100.00
2023-03-28T02:57:26.604Z,99.60
2023-03-28T03:00:11.833Z,96.89
2023-03-28T03:02:47.342Z,99.03
2023-03-28T03:05:20.927Z,99.99
2023-03-28T03:07:53.592Z,100.00
2023-03-28T03:10:25.839Z,99.28
2023-03-28T03:12:58.207Z,100.00
2023-03-28T03:15:31.202Z,99.14
2023-03-28T03:18:04.176Z,99.00
2023-03-28T03:20:40.427Z,95.50
2023-03-28T03:23:14.464Z,96.38
2023-03-28T03:25:49.825Z,96.92
2023-03-28T03:28:26.807Z,94.96
2023-03-28T03:31:01.462Z,93.69
2023-03-28T03:33:46.456Z,93.70
2023-03-28T03:36:20.588Z,95.69
2023-03-28T03:38:53.110Z,95.80
2023-03-28T03:41:30.758Z,93.97
2023-03-28T03:44:03.168Z,93.31
2023-03-28T03:46:36.555Z,93.06
2023-03-28T03:49:09.476Z,93.34
2023-03-28T03:51:41.837Z,91.91
2023-03-28T03:54:14.290Z,94.04
2023-03-28T03:56:47.872Z,95.40
2023-03-28T03:59:20.554Z,93.98
2023-03-28T04:01:55.163Z,94.58
2023-03-28T04:04:44.963Z,95.81
2023-03-28T04:07:41.516Z,93.70
2023-03-28T04:10:20.619Z,93.64
2023-03-28T04:12:53.138Z,94.88
2023-03-28T04:15:25.447Z,94.73
2023-03-28T04:18:19.689Z,95.76
2023-03-28T04:20:56.738Z,92.55
2023-03-28T04:23:43.443Z,93.13
2023-03-28T04:26:55.235Z,95.19
2023-03-28T04:29:30.155Z,95.25
2023-03-28T04:32:23.654Z,93.68
2023-03-28T04:35:10.489Z,93.80
2023-03-28T04:37:43.216Z,92.91
2023-03-28T04:40:16.934Z,92.69
2023-03-28T04:43:00.929Z,92.60
2023-03-28T04:45:42.126Z,91.93
2023-03-28T04:48:22.195Z,92.19
2023-03-28T04:50:55.495Z,92.39
2023-03-28T04:53:27.934Z,95.39
2023-03-28T04:56:18.616Z,94.19
2023-03-28T04:58:51.072Z,94.36
2023-03-28T05:01:26.487Z,94.30
2023-03-28T05:04:22.892Z,94.35
2023-03-28T05:06:56.886Z,94.79
2023-03-28T05:09:29.736Z,94.89
2023-03-28T05:12:02.143Z,93.72
2023-03-28T05:14:37.555Z,95.38
2023-03-28T05:17:16.700Z,97.35
2023-03-28T05:20:08.694Z,96.42
2023-03-28T05:22:52.318Z,96.07
2023-03-28T05:25:25.476Z,97.05
2023-03-28T05:27:58.123Z,99.67
2023-03-28T05:30:30.873Z,97.76
2023-03-28T05:33:03.959Z,97.90
2023-03-28T05:35:36.954Z,99.48
2023-03-28T05:38:09.971Z,99.73
2023-03-28T05:40:42.288Z,100.00
2023-03-28T05:43:14.717Z,99.74
2023-03-28T05:45:47.327Z,97.51
2023-03-28T05:48:24.531Z,96.46
2023-03-28T05:50:56.815Z,97.78
2023-03-28T05:53:29.832Z,98.54
2023-03-28T05:56:02.162Z,97.26
2023-03-28T05:58:34.436Z,98.62
2023-03-28T06:01:08.849Z,100.00
2023-03-28T06:03:41.813Z,98.97
2023-03-28T06:06:14.537Z,95.53
2023-03-28T06:08:48.423Z,93.80
2023-03-28T06:11:20.876Z,97.63
2023-03-28T06:14:13.123Z,97.59
2023-03-28T06:16:46.076Z,95.07
2023-03-28T06:19:19.093Z,98.73
2023-03-28T06:22:00.025Z,97.55
2023-03-28T06:24:33.851Z,98.90
2023-03-28T06:27:06.253Z,100.00
2023-03-28T06:29:43.792Z,99.74
2023-03-28T06:32:17.443Z,98.59
2023-03-28T06:34:50.039Z,97.84
2023-03-28T06:37:22.379Z,100.00
2023-03-28T06:40:08.728Z,100.00
2023-03-28T06:42:42.500Z,100.00
2023-03-28T06:45:38.229Z,100.00
2023-03-28T06:48:14.790Z,100.00
2023-03-28T06:51:12.117Z,100.00
2023-03-28T06:53:45.303Z,100.00
2023-03-28T06:56:19.194Z,100.00
2023-03-28T06:58:51.674Z,100.00
2023-03-28T07:01:29.149Z,100.00
2023-03-28T07:04:19.384Z,100.00
2023-03-28T07:06:52.275Z,100.00
2023-03-28T07:09:25.583Z,100.00
2023-03-28T07:12:05.474Z,100.00
2023-03-28T07:14:39.635Z,100.00
2023-03-28T07:17:13.004Z,100.00
2023-03-28T07:19:48.301Z,100.00
2023-03-28T07:22:20.619Z,100.00
2023-03-28T07:24:52.946Z,96.12
2023-03-28T07:27:27.746Z,93.28
2023-03-28T07:30:00.248Z,94.69
2023-03-28T07:32:39.337Z,96.27
2023-03-28T07:35:23.807Z,99.64
2023-03-28T07:37:58.461Z,100.00
2023-03-28T07:40:51.005Z,100.00
2023-03-28T07:43:24.014Z,100.00
2023-03-28T07:46:00.252Z,100.00
2023-03-28T07:48:33.731Z,100.00
2023-03-28T07:51:08.563Z,100.00
2023-03-28T07:53:41.240Z,100.00
2023-03-28T07:56:13.889Z,100.00
2023-03-28T07:59:12.888Z,100.00
2023-03-28T08:01:46.791Z,100.00
2023-03-28T08:04:19.333Z,97.02
2023-03-28T08:07:12.148Z,94.50
2023-03-28T08:09:46.525Z,95.18
2023-03-28T08:12:24.510Z,94.67
2023-03-28T08:14:57.763Z,92.74
2023-03-28T08:17:30.087Z,94.16
2023-03-28T08:20:07.531Z,96.35
2023-03-28T08:23:18.545Z,94.32
2023-03-28T08:26:06.640Z,97.96
2023-03-28T08:28:39.330Z,95.67
2023-03-28T08:31:14.715Z,93.43
2023-03-28T08:33:51.842Z,94.20
2023-03-28T08:36:28.709Z,94.19
2023-03-28T08:39:04.124Z,94.44
2023-03-28T08:42:03.023Z,96.31
2023-03-28T08:44:54.296Z,92.92
2023-03-28T08:47:30.750Z,92.99
2023-03-28T08:50:13.546Z,94.34
2023-03-28T08:52:47.106Z,90.67
2023-03-28T08:55:30.557Z,92.68
2023-03-28T08:58:04.085Z,91.57
2023-03-28T09:00:38.175Z,91.96
2023-03-28T09:03:13.385Z,93.60
2023-03-28T09:05:50.251Z,89.58
2023-03-28T09:08:55.765Z,92.73
2023-03-28T09:11:40.490Z,90.40
2023-03-28T09:14:35.159Z,88.44
2023-03-28T09:17:17.474Z,93.43
2023-03-28T09:20:10.535Z,91.84
2023-03-28T09:23:10.519Z,88.17
2023-03-28T09:26:12.746Z,84.32
2023-03-28T09:28:51.482Z,82.76
2023-03-28T09:31:30.287Z,83.78
2023-03-28T09:34:06.529Z,85.42
2023-03-28T09:39:36.124Z,80.84
2023-03-28T09:42:16.730Z,84.14
2023-03-28T09:45:02.708Z,83.86
2023-03-28T09:48:19.878Z,84.75
2023-03-28T09:50:53.305Z,83.78
2023-03-28T09:53:32.435Z,81.13
2023-03-28T09:56:12.878Z,77.82
2023-03-28T09:58:50.347Z,76.90
2023-03-28T10:01:37.388Z,75.96
2023-03-28T10:04:34.088Z,76.25
2023-03-28T10:07:33.352Z,78.14
2023-03-28T10:10:24.754Z,76.13
2023-03-28T10:13:04.130Z,78.05
2023-03-28T10:15:45.221Z,74.85
2023-03-28T10:18:39.866Z,78.00
2023-03-28T10:21:17.543Z,75.63
2023-03-28T10:24:01.469Z,74.27
2023-03-28T10:26:34.846Z,76.62
2023-03-28T10:29:13.744Z,76.89
2023-03-28T10:31:50.280Z,77.09
2023-03-28T10:34:36.386Z,80.98
2023-03-28T10:37:25.511Z,75.99
2023-03-28T10:40:33.066Z,75.95
2023-03-28T10:43:13.367Z,74.23
2023-03-28T10:46:18.112Z,72.66
2023-03-28T10:49:18.799Z,71.54
2023-03-28T10:52:00.891Z,72.95
2023-03-28T10:54:50.825Z,74.13
2023-03-28T10:57:50.719Z,75.88
2023-03-28T11:00:26.012Z,76.24
2023-03-28T11:03:14.716Z,75.47
2023-03-28T11:06:08.737Z,78.18
2023-03-28T11:08:57.784Z,80.16
2023-03-28T11:11:52.860Z,76.94
2023-03-28T11:14:43.670Z,79.77
2023-03-28T11:17:26.830Z,74.86
2023-03-28T11:20:25.824Z,78.96
2023-03-28T11:23:36.744Z,82.62
2023-03-28T11:26:41.145Z,78.19
2023-03-28T11:29:43.704Z,76.80
2023-03-28T11:32:26.699Z,71.48
2023-03-28T11:35:13.396Z,70.99
2023-03-28T11:37:55.497Z,70.86
2023-03-28T11:40:34.889Z,70.97
2023-03-28T11:43:17.003Z,69.29
2023-03-28T11:45:53.478Z,65.34
2023-03-28T11:48:38.946Z,68.11
2023-03-28T11:51:20.408Z,64.91
2023-03-28T11:54:01.433Z,68.93
2023-03-28T11:56:45.997Z,59.89
2023-03-28T11:59:24.788Z,60.08
2023-03-28T12:02:05.621Z,62.03
2023-03-28T12:04:45.731Z,62.19
2023-03-28T12:07:21.782Z,61.01
2023-03-28T12:10:02.690Z,60.43
2023-03-28T12:12:44.546Z,57.21
2023-03-28T12:15:21.019Z,56.13
2023-03-28T12:18:06.941Z,62.54
2023-03-28T12:20:50.596Z,61.12
2023-03-28T12:23:38.501Z,53.74
2023-03-28T12:26:55.464Z,54.17
2023-03-28T12:29:36.609Z,59.79
2023-03-28T12:32:26.296Z,57.72
2023-03-28T12:35:14.104Z,55.19
2023-03-28T12:38:25.921Z,55.21
2023-03-28T12:41:09.641Z,54.89
2023-03-28T12:43:46.655Z,58.84
2023-03-28T12:46:28.489Z,51.69
2023-03-28T12:49:04.354Z,51.29
2023-03-28T12:51:45.185Z,47.94
2023-03-28T12:54:27.265Z,47.49
2023-03-28T12:57:11.129Z,50.46
2023-03-28T13:00:17.006Z,49.17
2023-03-28T13:03:23.678Z,48.81
2023-03-28T13:06:02.789Z,48.98
2023-03-28T13:08:48.177Z,49.34
2023-03-28T13:11:33.831Z,46.65
2023-03-28T13:14:29.719Z,49.25
2023-03-28T13:17:15.389Z,50.48
2023-03-28T13:19:52.288Z,47.70
2023-03-28T13:22:29.049Z,47.32
2023-03-28T13:25:22.042Z,47.24
2023-03-28T13:27:56.545Z,44.38
2023-03-28T13:30:31.269Z,44.52
2023-03-28T13:33:15.824Z,43.71
2023-03-28T13:36:09.812Z,46.13
2023-03-28T13:38:47.404Z,47.00
2023-03-28T13:41:51.655Z,42.24
2023-03-28T13:44:30.751Z,46.51
2023-03-28T13:47:04.159Z,46.68
2023-03-28T13:49:44.125Z,45.38
2023-03-28T13:52:20.052Z,44.45
2023-03-28T13:55:00.132Z,42.37
2023-03-28T13:57:32.960Z,42.55
2023-03-28T14:00:13.527Z,45.22
2023-03-28T14:02:47.125Z,41.42
2023-03-28T14:05:21.667Z,44.04
2023-03-28T14:07:55.485Z,42.26
2023-03-28T14:10:29.992Z,43.03
2023-03-28T14:13:05.881Z,42.18
2023-03-28T14:15:40.850Z,42.89
2023-03-28T14:18:17.233Z,42.64
2023-03-28T14:20:49.640Z,41.34
2023-03-28T14:23:28.781Z,44.56
2023-03-28T14:26:02.479Z,45.11
2023-03-28T14:28:39.924Z,46.46
2023-03-28T14:31:27.549Z,44.62
2023-03-28T14:34:12.555Z,44.19
2023-03-28T14:36:58.155Z,45.38
2023-03-28T14:39:32.430Z,45.88
2023-03-28T14:42:07.629Z,44.48
2023-03-28T14:44:41.804Z,43.71
2023-03-28T14:47:17.180Z,42.03
2023-03-28T14:49:49.646Z,43.18
2023-03-28T14:52:28.702Z,44.98
2023-03-28T14:55:02.367Z,44.40
2023-03-28T14:57:36.977Z,43.47
2023-03-28T15:00:15.648Z,43.69
2023-03-28T15:02:51.177Z,43.16
2023-03-28T15:05:23.965Z,41.32
2023-03-28T15:08:01.059Z,42.13
2023-03-28T15:10:33.530Z,43.34
2023-03-28T15:13:08.550Z,42.33
2023-03-28T15:15:43.559Z,41.34
2023-03-28T15:18:24.436Z,41.36
2023-03-28T15:21:00.637Z,44.88
2023-03-28T15:23:40.104Z,42.04
2023-03-28T15:26:20.606Z,43.30
2023-03-28T15:28:54.142Z,42.89
2023-03-28T15:31:27.613Z,42.34
2023-03-28T15:34:00.938Z,43.67
2023-03-28T15:36:34.257Z,41.96
2023-03-28T15:39:18.392Z,44.10
2023-03-28T15:41:53.840Z,45.16
2023-03-28T15:44:28.590Z,44.84
2023-03-28T15:47:04.587Z,46.97
2023-03-28T15:49:38.457Z,47.70
2023-03-28T15:52:18.013Z,48.18
2023-03-28T15:54:52.545Z,48.77
2023-03-28T15:57:28.357Z,49.50
2023-03-28T16:00:01.294Z,49.85
2023-03-28T16:02:36.530Z,47.53
2023-03-28T16:05:28.558Z,48.90
2023-03-28T16:08:00.947Z,50.32
2023-03-28T16:10:33.283Z,51.33
2023-03-28T16:13:24.118Z,52.14
2023-03-28T16:16:23.472Z,51.75
2023-03-28T16:19:25.192Z,51.11
2023-03-28T16:22:00.927Z,52.09
2023-03-28T16:24:34.362Z,53.40
2023-03-28T16:27:06.844Z,51.67
2023-03-28T16:29:39.166Z,52.05
2023-03-28T16:32:12.178Z,51.63
2023-03-28T16:34:44.837Z,52.12
2023-03-28T16:37:19.946Z,55.36
2023-03-28T16:39:52.270Z,54.86
2023-03-28T16:42:26.894Z,55.81
2023-03-28T16:44:59.208Z,57.43
2023-03-28T16:47:31.524Z,58.00
2023-03-28T16:50:04.615Z,60.75
2023-03-28T16:52:39.690Z,64.06
2023-03-28T16:55:13.657Z,64.91
2023-03-28T16:57:46.010Z,67.35
2023-03-28T17:00:36.769Z,71.05
2023-03-28T17:03:09.492Z,71.30
2023-03-28T17:05:41.942Z,70.80
2023-03-28T17:08:15.120Z,75.23
2023-03-28T17:10:47.469Z,72.36
2023-03-28T17:13:19.831Z,73.27
2023-03-28T17:15:53.622Z,73.38
2023-03-28T17:18:26.501Z,71.84
2023-03-28T17:21:00.967Z,70.45
2023-03-28T17:23:34.969Z,67.87
2023-03-28T17:26:09.422Z,67.99
2023-03-28T17:28:42.755Z,66.97
2023-03-28T17:31:17.917Z,68.92
2023-03-28T17:33:50.560Z,69.70
2023-03-28T17:36:25.348Z,69.03
2023-03-28T17:38:58.822Z,64.66
2023-03-28T17:41:31.577Z,66.55
2023-03-28T17:44:04.809Z,64.74
2023-03-28T17:46:38.000Z,67.42
2023-03-28T17:49:10.461Z,65.54
2023-03-28T17:51:43.479Z,67.29
2023-03-28T17:54:16.717Z,64.96
2023-03-28T17:56:49.200Z,67.17
2023-03-28T17:59:21.858Z,65.30
2023-03-28T18:01:54.437Z,64.91
2023-03-28T18:04:27.294Z,65.24
2023-03-28T18:07:27.274Z,65.28
2023-03-28T18:10:01.564Z,65.69
2023-03-28T18:12:34.104Z,65.57
2023-03-28T18:15:07.489Z,65.02
2023-03-28T18:17:40.480Z,65.62
2023-03-28T18:20:13.247Z,65.27
2023-03-28T18:22:45.626Z,66.14
2023-03-28T18:25:18.663Z,65.52
2023-03-28T18:27:51.010Z,64.92
2023-03-28T18:30:23.319Z,65.67
2023-03-28T18:32:55.669Z,65.14
2023-03-28T18:35:28.213Z,65.20
2023-03-28T18:38:01.034Z,64.05
2023-03-28T18:40:34.003Z,64.84
2023-03-28T18:43:06.527Z,65.95
2023-03-28T18:45:38.856Z,64.43
2023-03-28T18:48:12.097Z,67.24
2023-03-28T18:50:45.119Z,65.96
2023-03-28T18:53:18.004Z,66.35
2023-03-28T18:55:51.762Z,68.08
2023-03-28T18:58:25.395Z,68.94
2023-03-28T19:00:59.607Z,69.71
2023-03-28T19:03:37.853Z,68.28
2023-03-28T19:06:12.018Z,67.63
2023-03-28T19:08:45.136Z,70.34
2023-03-28T19:11:19.010Z,68.83
2023-03-28T19:13:51.324Z,69.08
2023-03-28T19:16:23.684Z,71.98
2023-03-28T19:18:56.538Z,69.89
2023-03-28T19:21:52.755Z,69.29
2023-03-28T19:24:25.150Z,70.31
2023-03-28T19:26:59.481Z,70.29
2023-03-28T19:29:32.951Z,69.68
2023-03-28T19:32:05.364Z,69.26
2023-03-28T19:34:37.693Z,70.57
2023-03-28T19:37:10.088Z,70.82
2023-03-28T19:39:43.000Z,70.72
2023-03-28T19:42:17.402Z,71.78
2023-03-28T19:44:49.676Z,71.44
2023-03-28T19:47:21.965Z,71.49
2023-03-28T19:49:54.369Z,71.59
2023-03-28T19:52:26.733Z,70.84
2023-03-28T19:54:59.020Z,71.65
2023-03-28T19:57:32.007Z,70.36
2023-03-28T20:00:05.990Z,71.17
2023-03-28T20:02:44.833Z,71.50
2023-03-28T20:05:18.556Z,72.64
2023-03-28T20:07:50.886Z,71.58
2023-03-28T20:10:23.239Z,73.57
2023-03-28T20:12:56.737Z,71.21
2023-03-28T20:15:28.997Z,72.09
2023-03-28T20:18:01.666Z,71.17
2023-03-28T20:20:34.155Z,70.10
2023-03-28T20:23:06.979Z,69.65
2023-03-28T20:25:39.287Z,69.73
2023-03-28T20:28:13.594Z,68.13
2023-03-28T20:30:46.486Z,69.21
2023-03-28T20:33:19.847Z,70.17
2023-03-28T20:35:52.934Z,68.38
2023-03-28T20:38:25.624Z,68.64
2023-03-28T20:40:57.896Z,69.54
2023-03-28T20:43:36.140Z,68.31
2023-03-28T20:46:09.023Z,67.48
2023-03-28T20:48:41.414Z,69.00
2023-03-28T20:51:16.683Z,68.98
2023-03-28T20:53:50.413Z,68.76
2023-03-28T20:56:23.146Z,68.16
2023-03-28T20:58:58.145Z,67.95
2023-03-28T21:01:31.976Z,67.34
2023-03-28T21:04:04.972Z,67.84
2023-03-28T21:06:37.842Z,68.37
2023-03-28T21:09:12.731Z,67.54
2023-03-28T21:11:45.600Z,67.07
2023-03-28T21:14:18.927Z,66.10
2023-03-28T21:16:51.488Z,66.52
2023-03-28T21:19:24.149Z,68.22
2023-03-28T21:21:56.481Z,68.38
2023-03-28T21:24:28.777Z,66.66
2023-03-28T21:27:01.330Z,67.00
2023-03-28T21:29:34.268Z,67.90
2023-03-28T21:32:06.766Z,68.41
2023-03-28T21:34:42.395Z,68.74
2023-03-28T21:37:14.670Z,68.43
2023-03-28T21:39:47.224Z,67.15
2023-03-28T21:42:19.580Z,67.31
2023-03-28T21:44:52.537Z,67.21
2023-03-28T21:47:24.837Z,67.53
2023-03-28T21:49:59.431Z,68.49
2023-03-28T21:52:32.362Z,68.54
2023-03-28T21:55:05.439Z,68.01
2023-03-28T21:57:37.724Z,68.87
2023-03-28T22:00:14.287Z,67.55
2023-03-28T22:02:46.653Z,68.10
2023-03-28T22:05:28.550Z,68.48
2023-03-28T22:08:02.030Z,67.45
2023-03-28T22:10:34.804Z,67.99
2023-03-28T22:13:07.154Z,67.86
2023-03-28T22:15:40.499Z,66.94
2023-03-28T22:18:13.402Z,68.06
2023-03-28T22:20:52.249Z,67.02
2023-03-28T22:23:25.035Z,68.68
2023-03-28T22:25:58.006Z,68.44
2023-03-28T22:28:30.397Z,68.15
2023-03-28T22:31:03.635Z,67.51
2023-03-28T22:33:36.396Z,69.29
2023-03-28T22:36:10.706Z,69.77
2023-03-28T22:38:43.076Z,68.15
2023-03-28T22:41:15.499Z,68.68
2023-03-28T22:43:47.855Z,68.43
2023-03-28T22:46:21.490Z,68.86
2023-03-28T22:48:57.244Z,68.69
2023-03-28T22:51:29.531Z,66.77
2023-03-28T22:54:03.308Z,69.86
2023-03-28T22:56:35.910Z,69.19
2023-03-28T22:59:08.819Z,69.32
2023-03-28T23:01:44.710Z,69.81
2023-03-28T23:04:17.657Z,71.09
2023-03-28T23:06:50.100Z,70.95
2023-03-28T23:09:24.734Z,71.36
2023-03-28T23:11:58.345Z,71.80
2023-03-28T23:14:30.714Z,72.03
2023-03-28T23:17:03.729Z,72.66
2023-03-28T23:19:36.342Z,71.99
2023-03-28T23:22:09.396Z,72.75
2023-03-28T23:24:41.706Z,73.94
2023-03-28T23:27:13.977Z,73.45
2023-03-28T23:29:46.292Z,74.11
2023-03-28T23:32:19.535Z,73.66
2023-03-28T23:34:52.939Z,75.02
2023-03-28T23:37:26.646Z,74.66
2023-03-28T23:39:58.894Z,75.36
2023-03-28T23:42:31.170Z,74.79
2023-03-28T23:45:03.917Z,75.33
2023-03-28T23:47:36.899Z,74.68
2023-03-28T23:50:10.816Z,74.18
2023-03-28T23:52:43.339Z,74.56
2023-03-28T23:55:16.292Z,74.69
2023-03-28T23:57:48.713Z,73.25
